sensor_id;sensor_type;location;lat;lon;timestamp;pressure;altitude;pressure_sealevel;temperature;humidity
10720;BME280;5411;58.386;15.560;2023-05-23T00:01:46;100560.00;;;15.45;60.86
10720;BME280;5411;58.386;15.560;2023-05-23T00:04:15;100558.84;;;15.41;61.09
10720;BME280;5411;58.386;15.560;2023-05-23T00:06:44;100558.47;;;15.38;60.75
10720;BME280;5411;58.386;15.560;2023-05-23T00:09:18;100559.72;;;15.35;61.21
10720;BME280;5411;58.386;15.560;2023-05-23T00:11:47;100559.13;;;15.33;61.40
10720;BME280;5411;58.386;15.560;2023-05-23T00:14:16;100553.97;;;15.31;61.28
10720;BME280;5411;58.386;15.560;2023-05-23T00:16:45;100558.31;;;15.32;60.79
10720;BME280;5411;58.386;15.560;2023-05-23T00:19:15;100548.34;;;15.33;61.57
10720;BME280;5411;58.386;15.560;2023-05-23T00:21:45;100548.34;;;15.33;61.27
10720;BME280;5411;58.386;15.560;2023-05-23T00:24:15;100550.00;;;15.34;61.01
10720;BME280;5411;58.386;15.560;2023-05-23T00:26:46;100556.22;;;15.34;61.14
10720;BME280;5411;58.386;15.560;2023-05-23T00:29:14;100548.72;;;15.37;60.88
10720;BME280;5411;58.386;15.560;2023-05-23T00:31:43;100552.84;;;15.39;61.62
10720;BME280;5411;58.386;15.560;2023-05-23T00:34:13;100548.50;;;15.38;60.82
10720;BME280;5411;58.386;15.560;2023-05-23T00:36:44;100548.88;;;15.42;61.19
10720;BME280;5411;58.386;15.560;2023-05-23T00:39:14;100543.00;;;15.45;60.75
10720;BME280;5411;58.386;15.560;2023-05-23T00:41:49;100548.75;;;15.48;60.67
10720;BME280;5411;58.386;15.560;2023-05-23T00:44:19;100540.22;;;15.51;60.86
10720;BME280;5411;58.386;15.560;2023-05-23T00:46:51;100545.84;;;15.50;61.16
10720;BME280;5411;58.386;15.560;2023-05-23T00:49:21;100547.69;;;15.49;60.64
10720;BME280;5411;58.386;15.560;2023-05-23T00:51:50;100540.44;;;15.50;60.85
10720;BME280;5411;58.386;15.560;2023-05-23T00:54:24;100534.22;;;15.49;61.05
10720;BME280;5411;58.386;15.560;2023-05-23T00:56:56;100539.84;;;15.48;61.06
10720;BME280;5411;58.386;15.560;2023-05-23T00:59:25;100538.19;;;15.47;60.97
10720;BME280;5411;58.386;15.560;2023-05-23T01:01:54;100534.69;;;15.46;61.02
10720;BME280;5411;58.386;15.560;2023-05-23T01:04:24;100530.09;;;15.47;61.03
10720;BME280;5411;58.386;15.560;2023-05-23T01:06:54;100522.25;;;15.45;60.72
10720;BME280;5411;58.386;15.560;2023-05-23T01:09:24;100530.31;;;15.45;61.11
10720;BME280;5411;58.386;15.560;2023-05-23T01:12:02;100533.03;;;15.45;61.13
10720;BME280;5411;58.386;15.560;2023-05-23T01:14:39;100527.06;;;15.43;60.98
10720;BME280;5411;58.386;15.560;2023-05-23T01:17:14;100525.41;;;15.42;61.08
10720;BME280;5411;58.386;15.560;2023-05-23T01:20:08;100523.78;;;15.41;61.19
10720;BME280;5411;58.386;15.560;2023-05-23T01:22:53;100523.53;;;15.43;61.03
10720;BME280;5411;58.386;15.560;2023-05-23T01:25:38;100514.41;;;15.44;60.87
10720;BME280;5411;58.386;15.560;2023-05-23T01:28:14;100516.84;;;15.45;60.90
10720;BME280;5411;58.386;15.560;2023-05-23T01:30:45;100513.94;;;15.47;60.46
10720;BME280;5411;58.386;15.560;2023-05-23T01:33:15;100509.56;;;15.46;60.29
10720;BME280;5411;58.386;15.560;2023-05-23T01:35:45;100505.84;;;15.47;60.62
10720;BME280;5411;58.386;15.560;2023-05-23T01:38:15;100506.44;;;15.49;59.92
10720;BME280;5411;58.386;15.560;2023-05-23T01:40:43;100499.53;;;15.53;59.87
10720;BME280;5411;58.386;15.560;2023-05-23T01:43:14;100497.47;;;15.55;59.83
10720;BME280;5411;58.386;15.560;2023-05-23T01:45:42;100498.88;;;15.57;59.37
10720;BME280;5411;58.386;15.560;2023-05-23T01:48:12;100501.09;;;15.60;59.26
10720;BME280;5411;58.386;15.560;2023-05-23T01:50:42;100498.97;;;15.62;59.55
10720;BME280;5411;58.386;15.560;2023-05-23T01:53:15;100493.00;;;15.60;59.24
10720;BME280;5411;58.386;15.560;2023-05-23T01:55:45;100494.63;;;15.61;59.39
10720;BME280;5411;58.386;15.560;2023-05-23T01:58:15;100488.41;;;15.61;59.08
10720;BME280;5411;58.386;15.560;2023-05-23T02:00:44;100487.59;;;15.60;59.11
10720;BME280;5411;58.386;15.560;2023-05-23T02:03:13;100485.94;;;15.59;59.35
10720;BME280;5411;58.386;15.560;2023-05-23T02:05:42;100480.00;;;15.57;59.13
10720;BME280;5411;58.386;15.560;2023-05-23T02:08:10;100478.13;;;15.58;59.42
10720;BME280;5411;58.386;15.560;2023-05-23T02:10:39;100477.53;;;15.56;59.35
10720;BME280;5411;58.386;15.560;2023-05-23T02:13:07;100478.34;;;15.56;59.29
10720;BME280;5411;58.386;15.560;2023-05-23T02:15:37;100474.59;;;15.57;59.00
10720;BME280;5411;58.386;15.560;2023-05-23T02:18:06;100476.22;;;15.58;59.19
10720;BME280;5411;58.386;15.560;2023-05-23T02:20:35;100469.22;;;15.57;59.08
10720;BME280;5411;58.386;15.560;2023-05-23T02:23:03;100467.56;;;15.56;58.97
10720;BME280;5411;58.386;15.560;2023-05-23T02:25:32;100471.31;;;15.55;59.04
10720;BME280;5411;58.386;15.560;2023-05-23T02:28:00;100465.28;;;15.53;58.87
10720;BME280;5411;58.386;15.560;2023-05-23T02:30:29;100458.84;;;15.54;58.87
10720;BME280;5411;58.386;15.560;2023-05-23T02:33:03;100456.38;;;15.53;58.82
10720;BME280;5411;58.386;15.560;2023-05-23T02:35:32;100461.53;;;15.54;59.10
10720;BME280;5411;58.386;15.560;2023-05-23T02:38:01;100456.38;;;15.53;58.79
10720;BME280;5411;58.386;15.560;2023-05-23T02:40:29;100452.03;;;15.52;58.84
10720;BME280;5411;58.386;15.560;2023-05-23T02:42:58;100445.59;;;15.53;58.50
10720;BME280;5411;58.386;15.560;2023-05-23T02:45:26;100442.91;;;15.53;58.55
10720;BME280;5411;58.386;15.560;2023-05-23T02:47:55;100441.84;;;15.54;58.72
10720;BME280;5411;58.386;15.560;2023-05-23T02:50:25;100441.03;;;15.53;58.54
10720;BME280;5411;58.386;15.560;2023-05-23T02:52:54;100432.72;;;15.55;58.45
10720;BME280;5411;58.386;15.560;2023-05-23T02:55:22;100440.81;;;15.55;58.46
10720;BME280;5411;58.386;15.560;2023-05-23T02:57:51;100445.16;;;15.56;57.76
10720;BME280;5411;58.386;15.560;2023-05-23T03:00:20;100443.28;;;15.56;58.23
10720;BME280;5411;58.386;15.560;2023-05-23T03:02:48;100439.28;;;15.59;57.74
10720;BME280;5411;58.386;15.560;2023-05-23T03:05:17;100426.97;;;15.63;57.41
10720;BME280;5411;58.386;15.560;2023-05-23T03:07:47;100427.09;;;15.68;57.63
10720;BME280;5411;58.386;15.560;2023-05-23T03:10:17;100434.00;;;15.76;57.42
10720;BME280;5411;58.386;15.560;2023-05-23T03:12:46;100430.84;;;15.79;57.10
10720;BME280;5411;58.386;15.560;2023-05-23T03:15:15;100429.88;;;15.85;56.98
10720;BME280;5411;58.386;15.560;2023-05-23T03:17:43;100432.94;;;15.88;57.28
10720;BME280;5411;58.386;15.560;2023-05-23T03:20:11;100431.66;;;15.91;57.16
10720;BME280;5411;58.386;15.560;2023-05-23T03:22:40;100427.44;;;15.95;56.50
10720;BME280;5411;58.386;15.560;2023-05-23T03:25:14;100425.88;;;15.99;56.20
10720;BME280;5411;58.386;15.560;2023-05-23T03:27:43;100431.66;;;16.02;56.23
10720;BME280;5411;58.386;15.560;2023-05-23T03:30:12;100426.13;;;16.09;56.74
10720;BME280;5411;58.386;15.560;2023-05-23T03:32:40;100427.88;;;16.15;56.79
10720;BME280;5411;58.386;15.560;2023-05-23T03:35:10;100426.94;;;16.21;57.00
10720;BME280;5411;58.386;15.560;2023-05-23T03:37:38;100426.19;;;16.26;57.93
10720;BME280;5411;58.386;15.560;2023-05-23T03:40:08;100425.72;;;16.29;58.79
10720;BME280;5411;58.386;15.560;2023-05-23T03:42:38;100425.59;;;16.35;58.54
10720;BME280;5411;58.386;15.560;2023-05-23T03:45:07;100420.28;;;16.40;58.39
10720;BME280;5411;58.386;15.560;2023-05-23T03:47:35;100420.41;;;16.46;57.68
10720;BME280;5411;58.386;15.560;2023-05-23T03:50:04;100412.41;;;16.51;58.07
10720;BME280;5411;58.386;15.560;2023-05-23T03:52:33;100415.53;;;16.59;59.75
10720;BME280;5411;58.386;15.560;2023-05-23T03:55:01;100416.28;;;16.83;60.07
10720;BME280;5411;58.386;15.560;2023-05-23T03:57:29;100414.63;;;17.10;60.22
10720;BME280;5411;58.386;15.560;2023-05-23T03:59:59;100410.19;;;17.38;58.26
10720;BME280;5411;58.386;15.560;2023-05-23T04:02:28;100404.16;;;17.64;57.67
10720;BME280;5411;58.386;15.560;2023-05-23T04:04:57;100408.22;;;17.84;56.08
10720;BME280;5411;58.386;15.560;2023-05-23T04:07:26;100407.34;;;18.00;54.77
10720;BME280;5411;58.386;15.560;2023-05-23T04:09:55;100409.00;;;18.23;54.29
10720;BME280;5411;58.386;15.560;2023-05-23T04:12:23;100405.72;;;18.42;53.08
10720;BME280;5411;58.386;15.560;2023-05-23T04:14:51;100399.44;;;18.59;52.50
10720;BME280;5411;58.386;15.560;2023-05-23T04:17:21;100395.50;;;18.71;50.88
10720;BME280;5411;58.386;15.560;2023-05-23T04:19:50;100395.34;;;18.83;50.41
10720;BME280;5411;58.386;15.560;2023-05-23T04:22:19;100397.88;;;18.90;49.34
10720;BME280;5411;58.386;15.560;2023-05-23T04:24:47;100399.78;;;18.94;49.64
10720;BME280;5411;58.386;15.560;2023-05-23T04:27:16;100396.00;;;18.95;49.17
10720;BME280;5411;58.386;15.560;2023-05-23T04:29:44;100394.34;;;18.89;49.17
10720;BME280;5411;58.386;15.560;2023-05-23T04:32:12;100391.81;;;18.82;49.40
10720;BME280;5411;58.386;15.560;2023-05-23T04:34:44;100384.19;;;18.79;48.59
10720;BME280;5411;58.386;15.560;2023-05-23T04:37:13;100397.22;;;18.77;49.75
10720;BME280;5411;58.386;15.560;2023-05-23T04:39:43;100393.94;;;18.75;49.14
10720;BME280;5411;58.386;15.560;2023-05-23T04:42:12;100395.84;;;18.80;49.00
10720;BME280;5411;58.386;15.560;2023-05-23T04:44:40;100396.16;;;18.83;49.05
10720;BME280;5411;58.386;15.560;2023-05-23T04:47:09;100393.78;;;18.87;48.67
10720;BME280;5411;58.386;15.560;2023-05-23T04:49:38;100400.00;;;18.88;48.51
10720;BME280;5411;58.386;15.560;2023-05-23T04:52:08;100398.13;;;18.88;48.27
10720;BME280;5411;58.386;15.560;2023-05-23T04:54:36;100392.38;;;18.84;48.37
10720;BME280;5411;58.386;15.560;2023-05-23T04:57:11;100396.72;;;18.85;48.37
10720;BME280;5411;58.386;15.560;2023-05-23T04:59:39;100387.84;;;18.90;49.06
10720;BME280;5411;58.386;15.560;2023-05-23T05:02:08;100393.03;;;18.97;48.34
10720;BME280;5411;58.386;15.560;2023-05-23T05:04:36;100395.44;;;18.93;49.00
10720;BME280;5411;58.386;15.560;2023-05-23T05:07:05;100398.16;;;18.93;48.16
10720;BME280;5411;58.386;15.560;2023-05-23T05:09:35;100394.63;;;18.93;48.13
10720;BME280;5411;58.386;15.560;2023-05-23T05:12:05;100397.59;;;18.91;47.86
10720;BME280;5411;58.386;15.560;2023-05-23T05:14:33;100393.78;;;18.92;48.11
10720;BME280;5411;58.386;15.560;2023-05-23T05:17:01;100395.44;;;18.93;48.30
10720;BME280;5411;58.386;15.560;2023-05-23T05:19:30;100385.66;;;18.92;47.71
10720;BME280;5411;58.386;15.560;2023-05-23T05:21:59;100388.13;;;18.94;48.34
10720;BME280;5411;58.386;15.560;2023-05-23T05:24:27;100387.94;;;19.00;48.33
10720;BME280;5411;58.386;15.560;2023-05-23T05:26:56;100384.41;;;19.05;48.16
10720;BME280;5411;58.386;15.560;2023-05-23T05:29:25;100386.59;;;19.03;47.95
10720;BME280;5411;58.386;15.560;2023-05-23T05:31:54;100380.88;;;19.04;48.12
10720;BME280;5411;58.386;15.560;2023-05-23T05:34:23;100382.06;;;19.13;47.97
10720;BME280;5411;58.386;15.560;2023-05-23T05:36:52;100378.31;;;19.19;47.43
10720;BME280;5411;58.386;15.560;2023-05-23T05:39:23;100383.78;;;19.25;47.78
10720;BME280;5411;58.386;15.560;2023-05-23T05:41:52;100379.47;;;19.29;48.05
10720;BME280;5411;58.386;15.560;2023-05-23T05:44:22;100378.19;;;19.36;47.88
10720;BME280;5411;58.386;15.560;2023-05-23T05:46:50;100379.84;;;19.42;46.98
10720;BME280;5411;58.386;15.560;2023-05-23T05:49:19;100372.81;;;19.46;46.72
10720;BME280;5411;58.386;15.560;2023-05-23T05:51:47;100375.34;;;19.58;47.31
10720;BME280;5411;58.386;15.560;2023-05-23T05:54:16;100376.78;;;19.71;47.24
10720;BME280;5411;58.386;15.560;2023-05-23T05:59:14;100376.34;;;19.84;45.79
10720;BME280;5411;58.386;15.560;2023-05-23T06:01:44;100374.50;;;19.95;46.87
10720;BME280;5411;58.386;15.560;2023-05-23T06:04:13;100372.66;;;20.05;46.40
10720;BME280;5411;58.386;15.560;2023-05-23T06:06:41;100375.91;;;20.12;44.91
10720;BME280;5411;58.386;15.560;2023-05-23T06:09:10;100369.16;;;20.15;45.46
10720;BME280;5411;58.386;15.560;2023-05-23T06:11:38;100369.47;;;20.28;45.41
10720;BME280;5411;58.386;15.560;2023-05-23T06:14:07;100369.28;;;20.45;45.30
10720;BME280;5411;58.386;15.560;2023-05-23T06:16:36;100373.13;;;20.64;44.69
10720;BME280;5411;58.386;15.560;2023-05-23T06:19:06;100375.59;;;20.81;44.16
10720;BME280;5411;58.386;15.560;2023-05-23T06:21:35;100380.53;;;20.94;43.57
10720;BME280;5411;58.386;15.560;2023-05-23T06:24:03;100373.47;;;21.09;43.42
10720;BME280;5411;58.386;15.560;2023-05-23T06:26:32;100368.03;;;21.24;44.45
10720;BME280;5411;58.386;15.560;2023-05-23T06:29:00;100363.41;;;21.34;43.01
10720;BME280;5411;58.386;15.560;2023-05-23T06:31:29;100362.03;;;21.47;43.38
10720;BME280;5411;58.386;15.560;2023-05-23T06:33:57;100363.94;;;21.57;42.31
10720;BME280;5411;58.386;15.560;2023-05-23T06:36:28;100361.72;;;21.59;40.40
10720;BME280;5411;58.386;15.560;2023-05-23T06:38:57;100352.75;;;21.63;41.00
10720;BME280;5411;58.386;15.560;2023-05-23T06:41:26;100360.63;;;21.60;40.78
10720;BME280;5411;58.386;15.560;2023-05-23T06:43:54;100362.28;;;21.66;41.68
10720;BME280;5411;58.386;15.560;2023-05-23T06:46:22;100352.44;;;21.75;40.69
10720;BME280;5411;58.386;15.560;2023-05-23T06:48:51;100364.38;;;21.84;41.27
10720;BME280;5411;58.386;15.560;2023-05-23T06:51:40;100357.84;;;21.90;39.64
10720;BME280;5411;58.386;15.560;2023-05-23T06:54:09;100349.66;;;21.90;39.61
10720;BME280;5411;58.386;15.560;2023-05-23T06:56:37;100348.84;;;21.85;39.20
10720;BME280;5411;58.386;15.560;2023-05-23T06:59:06;100353.47;;;21.89;39.93
10720;BME280;5411;58.386;15.560;2023-05-23T07:01:34;100352.97;;;21.82;40.56
10720;BME280;5411;58.386;15.560;2023-05-23T07:04:02;100349.72;;;21.75;39.97
10720;BME280;5411;58.386;15.560;2023-05-23T07:06:31;100349.16;;;21.78;39.75
10720;BME280;5411;58.386;15.560;2023-05-23T07:09:02;100348.34;;;21.78;40.15
10720;BME280;5411;58.386;15.560;2023-05-23T07:11:31;100352.97;;;21.82;39.53
10720;BME280;5411;58.386;15.560;2023-05-23T07:14:01;100354.56;;;21.88;39.96
10720;BME280;5411;58.386;15.560;2023-05-23T07:16:30;100360.81;;;21.99;40.97
10720;BME280;5411;58.386;15.560;2023-05-23T07:18:59;100350.41;;;22.11;41.45
10720;BME280;5411;58.386;15.560;2023-05-23T07:21:28;100349.88;;;22.14;39.79
10720;BME280;5411;58.386;15.560;2023-05-23T07:23:56;100355.31;;;22.19;40.15
10720;BME280;5411;58.386;15.560;2023-05-23T07:26:27;100356.09;;;22.25;38.73
10720;BME280;5411;58.386;15.560;2023-05-23T07:28:55;100354.97;;;22.31;39.61
10720;BME280;5411;58.386;15.560;2023-05-23T07:31:24;100351.09;;;22.42;39.57
10720;BME280;5411;58.386;15.560;2023-05-23T07:33:53;100354.34;;;22.49;38.97
10720;BME280;5411;58.386;15.560;2023-05-23T07:36:23;100356.72;;;22.61;38.52
10720;BME280;5411;58.386;15.560;2023-05-23T07:38:51;100353.63;;;22.72;39.06
10720;BME280;5411;58.386;15.560;2023-05-23T07:41:20;100348.97;;;22.78;36.41
10720;BME280;5411;58.386;15.560;2023-05-23T07:43:49;100351.44;;;22.74;37.65
10720;BME280;5411;58.386;15.560;2023-05-23T07:46:18;100346.00;;;22.69;36.54
10720;BME280;5411;58.386;15.560;2023-05-23T07:48:48;100346.84;;;22.65;36.76
10720;BME280;5411;58.386;15.560;2023-05-23T07:51:16;100343.09;;;22.61;37.03
10720;BME280;5411;58.386;15.560;2023-05-23T07:53:47;100346.09;;;22.54;36.47
10720;BME280;5411;58.386;15.560;2023-05-23T07:56:16;100339.34;;;22.47;36.80
10720;BME280;5411;58.386;15.560;2023-05-23T07:58:44;100345.09;;;22.40;36.52
10720;BME280;5411;58.386;15.560;2023-05-23T08:01:14;100337.25;;;22.33;35.65
10720;BME280;5411;58.386;15.560;2023-05-23T08:03:42;100339.22;;;22.23;36.36
10720;BME280;5411;58.386;15.560;2023-05-23T08:06:10;100335.13;;;22.20;36.82
10720;BME280;5411;58.386;15.560;2023-05-23T08:08:39;100334.03;;;22.21;36.92
10720;BME280;5411;58.386;15.560;2023-05-23T08:11:09;100334.53;;;22.28;37.09
10720;BME280;5411;58.386;15.560;2023-05-23T08:13:38;100339.41;;;22.36;36.83
10720;BME280;5411;58.386;15.560;2023-05-23T08:16:06;100345.63;;;22.42;37.06
10720;BME280;5411;58.386;15.560;2023-05-23T08:18:36;100337.16;;;22.49;37.19
10720;BME280;5411;58.386;15.560;2023-05-23T08:21:04;100340.91;;;22.58;37.51
10720;BME280;5411;58.386;15.560;2023-05-23T08:23:33;100339.75;;;22.69;37.54
10720;BME280;5411;58.386;15.560;2023-05-23T08:26:01;100336.16;;;22.79;37.06
10720;BME280;5411;58.386;15.560;2023-05-23T08:28:30;100339.94;;;22.83;36.82
10720;BME280;5411;58.386;15.560;2023-05-23T08:31:00;100345.38;;;22.88;35.86
10720;BME280;5411;58.386;15.560;2023-05-23T08:33:29;100330.56;;;22.94;37.83
10720;BME280;5411;58.386;15.560;2023-05-23T08:36:00;100339.28;;;23.01;37.77
10720;BME280;5411;58.386;15.560;2023-05-23T08:38:29;100338.91;;;23.07;37.35
10720;BME280;5411;58.386;15.560;2023-05-23T08:41:00;100335.88;;;23.14;37.42
10720;BME280;5411;58.386;15.560;2023-05-23T08:43:28;100340.81;;;23.12;37.57
10720;BME280;5411;58.386;15.560;2023-05-23T08:45:57;100334.78;;;23.15;37.66
10720;BME280;5411;58.386;15.560;2023-05-23T08:48:27;100336.31;;;23.26;37.23
10720;BME280;5411;58.386;15.560;2023-05-23T08:50:56;100336.75;;;23.38;37.47
10720;BME280;5411;58.386;15.560;2023-05-23T08:53:28;100332.25;;;23.53;37.75
10720;BME280;5411;58.386;15.560;2023-05-23T08:55:58;100335.44;;;23.60;37.22
10720;BME280;5411;58.386;15.560;2023-05-23T08:58:29;100329.44;;;23.58;37.49
10720;BME280;5411;58.386;15.560;2023-05-23T09:01:00;100324.00;;;23.58;36.91
10720;BME280;5411;58.386;15.560;2023-05-23T09:03:29;100319.59;;;23.62;37.64
10720;BME280;5411;58.386;15.560;2023-05-23T09:05:58;100320.56;;;23.71;37.17
10720;BME280;5411;58.386;15.560;2023-05-23T09:08:29;100318.06;;;23.74;35.61
10720;BME280;5411;58.386;15.560;2023-05-23T09:10:57;100314.63;;;23.88;36.69
10720;BME280;5411;58.386;15.560;2023-05-23T09:13:28;100314.44;;;24.03;35.99
10720;BME280;5411;58.386;15.560;2023-05-23T09:16:03;100314.47;;;24.22;34.58
10720;BME280;5411;58.386;15.560;2023-05-23T09:18:33;100310.59;;;24.46;34.70
10720;BME280;5411;58.386;15.560;2023-05-23T09:21:02;100305.72;;;24.62;33.76
10720;BME280;5411;58.386;15.560;2023-05-23T09:23:33;100302.88;;;24.67;34.01
10720;BME280;5411;58.386;15.560;2023-05-23T09:26:02;100311.44;;;24.79;32.49
10720;BME280;5411;58.386;15.560;2023-05-23T09:28:32;100306.69;;;24.85;33.09
10720;BME280;5411;58.386;15.560;2023-05-23T09:31:01;100303.88;;;24.90;33.31
10720;BME280;5411;58.386;15.560;2023-05-23T09:33:39;100305.31;;;24.88;32.62
10720;BME280;5411;58.386;15.560;2023-05-23T09:36:10;100296.13;;;24.78;32.90
10720;BME280;5411;58.386;15.560;2023-05-23T09:38:41;100306.19;;;24.64;33.28
10720;BME280;5411;58.386;15.560;2023-05-23T09:41:11;100303.50;;;24.45;32.03
10720;BME280;5411;58.386;15.560;2023-05-23T09:43:48;100299.13;;;24.26;32.79
10720;BME280;5411;58.386;15.560;2023-05-23T09:46:19;100303.06;;;24.14;32.42
10720;BME280;5411;58.386;15.560;2023-05-23T09:48:49;100295.78;;;24.10;32.51
10720;BME280;5411;58.386;15.560;2023-05-23T09:51:20;100306.72;;;24.10;32.99
10720;BME280;5411;58.386;15.560;2023-05-23T09:53:51;100301.00;;;24.06;32.43
10720;BME280;5411;58.386;15.560;2023-05-23T09:56:20;100293.75;;;24.15;32.85
10720;BME280;5411;58.386;15.560;2023-05-23T09:58:49;100298.25;;;24.30;32.54
10720;BME280;5411;58.386;15.560;2023-05-23T10:01:18;100299.19;;;24.39;33.06
10720;BME280;5411;58.386;15.560;2023-05-23T10:03:48;100301.13;;;24.58;33.13
10720;BME280;5411;58.386;15.560;2023-05-23T10:06:24;100299.38;;;24.80;32.44
10720;BME280;5411;58.386;15.560;2023-05-23T10:08:58;100292.28;;;24.98;31.78
10720;BME280;5411;58.386;15.560;2023-05-23T10:14:39;100287.97;;;25.25;32.33
10720;BME280;5411;58.386;15.560;2023-05-23T10:17:14;100285.16;;;25.30;31.59
10720;BME280;5411;58.386;15.560;2023-05-23T10:19:49;100283.19;;;25.30;31.10
10720;BME280;5411;58.386;15.560;2023-05-23T10:22:20;100285.75;;;25.40;30.61
10720;BME280;5411;58.386;15.560;2023-05-23T10:24:51;100280.47;;;25.44;31.89
10720;BME280;5411;58.386;15.560;2023-05-23T10:27:20;100279.56;;;25.48;31.86
10720;BME280;5411;58.386;15.560;2023-05-23T10:29:49;100279.34;;;25.45;31.13
10720;BME280;5411;58.386;15.560;2023-05-23T10:32:19;100273.19;;;25.53;31.37
10720;BME280;5411;58.386;15.560;2023-05-23T10:34:53;100273.81;;;25.64;31.83
10720;BME280;5411;58.386;15.560;2023-05-23T10:37:29;100277.16;;;25.74;31.03
10720;BME280;5411;58.386;15.560;2023-05-23T10:40:03;100274.84;;;25.81;30.97
10720;BME280;5411;58.386;15.560;2023-05-23T10:42:42;100278.25;;;25.87;30.35
10720;BME280;5411;58.386;15.560;2023-05-23T10:45:14;100270.16;;;25.96;30.90
10720;BME280;5411;58.386;15.560;2023-05-23T10:47:42;100265.94;;;25.98;31.32
10720;BME280;5411;58.386;15.560;2023-05-23T10:50:14;100268.81;;;25.93;30.42
10720;BME280;5411;58.386;15.560;2023-05-23T10:52:43;100269.78;;;26.11;31.45
10720;BME280;5411;58.386;15.560;2023-05-23T10:55:14;100267.13;;;26.33;30.48
10720;BME280;5411;58.386;15.560;2023-05-23T10:57:43;100262.50;;;26.42;31.14
10720;BME280;5411;58.386;15.560;2023-05-23T11:00:14;100268.50;;;26.44;30.85
10720;BME280;5411;58.386;15.560;2023-05-23T11:02:51;100266.94;;;26.52;30.46
10720;BME280;5411;58.386;15.560;2023-05-23T11:05:22;100264.44;;;26.64;30.11
10720;BME280;5411;58.386;15.560;2023-05-23T11:08:07;100266.78;;;26.71;29.36
10720;BME280;5411;58.386;15.560;2023-05-23T11:10:54;100264.38;;;26.78;29.12
10720;BME280;5411;58.386;15.560;2023-05-23T11:13:23;100270.13;;;26.90;28.14
10720;BME280;5411;58.386;15.560;2023-05-23T11:15:51;100266.16;;;26.96;27.04
10720;BME280;5411;58.386;15.560;2023-05-23T11:18:22;100268.63;;;27.06;27.41
10720;BME280;5411;58.386;15.560;2023-05-23T11:20:52;100259.66;;;27.23;26.96
10720;BME280;5411;58.386;15.560;2023-05-23T11:23:21;100263.34;;;27.18;25.46
10720;BME280;5411;58.386;15.560;2023-05-23T11:25:51;100260.66;;;26.96;26.86
10720;BME280;5411;58.386;15.560;2023-05-23T11:28:21;100263.09;;;26.75;26.36
10720;BME280;5411;58.386;15.560;2023-05-23T11:30:49;100258.41;;;26.76;26.55
10720;BME280;5411;58.386;15.560;2023-05-23T11:33:18;100257.59;;;26.75;26.77
10720;BME280;5411;58.386;15.560;2023-05-23T11:35:48;100254.94;;;26.92;26.37
10720;BME280;5411;58.386;15.560;2023-05-23T11:38:17;100252.16;;;27.06;26.56
10720;BME280;5411;58.386;15.560;2023-05-23T11:40:47;100248.34;;;27.16;25.75
10720;BME280;5411;58.386;15.560;2023-05-23T11:43:16;100244.63;;;27.20;25.56
10720;BME280;5411;58.386;15.560;2023-05-23T11:45:47;100246.06;;;27.18;24.46
10720;BME280;5411;58.386;15.560;2023-05-23T11:48:16;100239.63;;;27.22;25.39
10720;BME280;5411;58.386;15.560;2023-05-23T11:50:46;100247.44;;;27.29;25.64
10720;BME280;5411;58.386;15.560;2023-05-23T11:53:17;100240.34;;;27.45;25.55
10720;BME280;5411;58.386;15.560;2023-05-23T11:55:48;100235.44;;;27.56;24.66
10720;BME280;5411;58.386;15.560;2023-05-23T11:58:19;100231.41;;;27.71;25.89
10720;BME280;5411;58.386;15.560;2023-05-23T12:00:50;100229.50;;;27.88;25.77
10720;BME280;5411;58.386;15.560;2023-05-23T12:03:21;100226.59;;;28.02;25.28
10720;BME280;5411;58.386;15.560;2023-05-23T12:05:49;100221.09;;;28.11;25.48
10720;BME280;5411;58.386;15.560;2023-05-23T12:08:18;100221.31;;;28.23;25.20
10720;BME280;5411;58.386;15.560;2023-05-23T12:10:51;100221.59;;;28.13;22.92
10720;BME280;5411;58.386;15.560;2023-05-23T12:13:22;100224.16;;;27.92;23.85
10720;BME280;5411;58.386;15.560;2023-05-23T12:15:58;100219.25;;;27.63;24.20
10720;BME280;5411;58.386;15.560;2023-05-23T12:18:31;100215.19;;;27.60;26.01
10720;BME280;5411;58.386;15.560;2023-05-23T12:21:02;100220.38;;;27.71;26.23
10720;BME280;5411;58.386;15.560;2023-05-23T12:23:32;100214.91;;;27.71;24.87
10720;BME280;5411;58.386;15.560;2023-05-23T12:26:04;100218.44;;;27.62;24.95
10720;BME280;5411;58.386;15.560;2023-05-23T12:28:37;100199.91;;;27.37;25.13
10720;BME280;5411;58.386;15.560;2023-05-23T12:31:11;100216.50;;;27.15;24.94
10720;BME280;5411;58.386;15.560;2023-05-23T12:33:40;100216.31;;;27.11;25.21
10720;BME280;5411;58.386;15.560;2023-05-23T12:36:10;100212.63;;;27.16;24.71
10720;BME280;5411;58.386;15.560;2023-05-23T12:38:41;100211.97;;;27.19;24.63
10720;BME280;5411;58.386;15.560;2023-05-23T12:41:15;100217.00;;;27.25;25.23
10720;BME280;5411;58.386;15.560;2023-05-23T12:43:49;100214.25;;;27.25;25.60
10720;BME280;5411;58.386;15.560;2023-05-23T12:46:20;100209.91;;;27.33;26.10
10720;BME280;5411;58.386;15.560;2023-05-23T12:48:49;100206.22;;;27.38;26.35
10720;BME280;5411;58.386;15.560;2023-05-23T12:51:19;100207.38;;;27.45;25.84
10720;BME280;5411;58.386;15.560;2023-05-23T12:53:47;100210.81;;;27.59;26.23
10720;BME280;5411;58.386;15.560;2023-05-23T12:56:16;100207.44;;;27.71;26.25
10720;BME280;5411;58.386;15.560;2023-05-23T12:58:44;100207.31;;;27.85;25.52
10720;BME280;5411;58.386;15.560;2023-05-23T13:01:12;100212.19;;;27.79;25.11
10720;BME280;5411;58.386;15.560;2023-05-23T13:03:43;100204.56;;;27.76;25.80
10720;BME280;5411;58.386;15.560;2023-05-23T13:06:11;100212.78;;;27.59;26.03
10720;BME280;5411;58.386;15.560;2023-05-23T13:08:40;100204.63;;;27.45;25.22
10720;BME280;5411;58.386;15.560;2023-05-23T13:11:08;100213.63;;;27.28;25.93